Bochem Mumbai — VRHJ8 — position and weather

sailwx.info

Track history (hours):
 
Tides and Currents Weather Stations Pressure Air Temp Water Temp Dewpoint Dewpoint Depression Visibility Wind Speed Wind Dir Waves Ship Positions

Bochem Mumbai

Last reported at 2016-Aug-24 15:29 UTC. Time now 2016-Aug-25 01:01 UTC.
Position N 43°10' W 010°07'.

Length 171 m; draft 7 m.

Type: Tanker. MMSI: 477932400.

Date/timePositionNaut miles runAvg speedWind from/ knotsBaromVisibWave heightAir tempDewpointWater temp
2016-Aug-24 15:29N 43°10' W 010°07'22014.6
2016-Aug-24 00:26N 46°24' W 007°45'1414.2
2016-Aug-23 23:26N 46°37' W 007°35'1314.5
2016-Aug-23 22:34N 46°48' W 007°27'1414.0
2016-Aug-23 21:33N 47°00' W 007°17'1514.9
2016-Aug-23 20:33N 47°14' W 007°07'1514.6
2016-Aug-23 19:34N 47°27' W 006°56'1413.9
2016-Aug-23 18:33N 47°39' W 006°47'1313.3
2016-Aug-23 17:34N 47°50' W 006°37'1413.7
2016-Aug-23 16:33N 48°03' W 006°27'1514.1
2016-Aug-23 15:27N 48°17' W 006°17'1314.8
2016-Aug-23 14:33N 48°28' W 006°07'1615.5
2016-Aug-23 13:32N 48°42' W 005°56'1515.6
2016-Aug-23 12:33N 48°55' W 005°44'1515.0
2016-Aug-23 11:33N 49°03' W 005°25'4312.7
2016-Aug-23 08:09N 49°26' W 004°28'1212.4
2016-Aug-23 07:10N 49°32' W 004°13'3814.5
2016-Aug-23 04:33N 49°53' W 003°24'1616.4
2016-Aug-23 03:34N 49°59' W 002°60'1616.1
2016-Aug-23 02:34N 50°03' W 002°36'1514.6
2016-Aug-23 01:33N 50°07' W 002°14'1312.6
2016-Aug-23 00:33N 50°10' W 001°55'1111.1
2016-Aug-22 23:33N 50°13' W 001°38'1110.7
2016-Aug-22 22:33N 50°16' W 001°22'1111.0
2016-Aug-22 21:33N 50°19' W 001°05'1313.1
2016-Aug-22 20:33N 50°23' W 000°45'1514.8
2016-Aug-22 19:34N 50°27' W 000°23'1615.7
2016-Aug-22 18:33N 50°31' E 000°01'1615.7
2016-Aug-22 17:33N 50°34' E 000°25'1514.8
2016-Aug-22 16:33N 50°40' E 000°46'1413.5
2016-Aug-22 15:32N 50°48' E 001°04'1111.5
2016-Aug-22 14:33N 50°55' E 001°18'1110.9
2016-Aug-22 13:33N 51°03' E 001°30'1212.2
2016-Aug-22 12:33N 51°12' E 001°43'1514.8
2016-Aug-22 11:34N 51°24' E 001°57'1312.9
2016-Aug-22 10:34N 51°21' E 002°17'1414.1
2016-Aug-22 09:34N 51°23' E 002°39'1110.9
2016-Aug-22 08:33N 51°23' E 002°57'1414.3
2016-Aug-22 07:33N 51°24' E 003°20'1212.4
2016-Aug-22 06:33N 51°27' E 003°39'9 8.8
2016-Aug-22 05:33N 51°21' E 003°50'8 8.2
2016-Aug-22 04:33N 51°24' E 004°02'8 8.2
2016-Aug-22 03:33N 51°21' E 004°14'5 4.6
2016-Aug-22 02:33N 51°17' E 004°15'1 0.7
2016-Aug-22 01:33N 51°17' E 004°14'0 0.2
2016-Aug-22 00:27N 51°17' E 004°14'0 0.0
2016-Aug-21 23:33N 51°17' E 004°14'0 0.0
2016-Aug-21 22:27N 51°17' E 004°14'0 0.0
2016-Aug-21 21:33N 51°17' E 004°14'0 0.0
2016-Aug-21 20:30N 51°17' E 004°14'0 0.0
2016-Aug-21 19:33N 51°17' E 004°14'0 0.0
2016-Aug-21 18:27N 51°17' E 004°14'0 0.0
2016-Aug-21 17:33N 51°17' E 004°14'0 0.0
2016-Aug-21 16:21N 51°17' E 004°14'0 0.0
2016-Aug-21 15:33N 51°17' E 004°14'0 0.0
2016-Aug-21 14:33N 51°17' E 004°14'0 0.0
2016-Aug-21 13:33N 51°17' E 004°14'0 0.0
2016-Aug-21 12:33N 51°17' E 004°14'0 0.0
2016-Aug-21 11:27N 51°17' E 004°14'0 0.0
2016-Aug-21 10:33N 51°17' E 004°14'0 0.0
2016-Aug-21 09:33N 51°17' E 004°14'0 0.0
2016-Aug-21 08:30N 51°17' E 004°14'0 0.0
2016-Aug-21 07:33N 51°17' E 004°14'0 0.0
2016-Aug-21 06:33N 51°17' E 004°14'0 0.0
2016-Aug-21 05:33N 51°17' E 004°14'0 0.0
2016-Aug-21 04:30N 51°17' E 004°14'0 0.0
2016-Aug-21 03:33N 51°17' E 004°14'0 0.0
2016-Aug-21 02:33N 51°17' E 004°14'0 0.0
2016-Aug-21 01:33N 51°17' E 004°14'0 0.0
2016-Aug-21 00:33N 51°17' E 004°14'0 0.0
2016-Aug-20 23:33N 51°17' E 004°14'0 0.0
2016-Aug-20 22:33N 51°17' E 004°14'0 0.0
2016-Aug-20 21:30N 51°17' E 004°14'0 0.0
2016-Aug-20 20:33N 51°17' E 004°14'0 0.0
2016-Aug-20 19:33N 51°17' E 004°14'0 0.0
2016-Aug-20 18:30N 51°17' E 004°14'0 0.0
2016-Aug-20 17:33N 51°17' E 004°14'0 0.0
2016-Aug-20 16:18N 51°17' E 004°14'0 0.0
2016-Aug-20 15:33N 51°17' E 004°14'1 0.8
2016-Aug-20 14:33N 51°16' E 004°15'0 0.3
2016-Aug-20 13:33N 51°17' E 004°15'4 3.6
2016-Aug-20 12:33N 51°20' E 004°16'1 0.8
2016-Aug-20 11:34N 51°21' E 004°17'4 4.4
2016-Aug-20 10:33N 51°17' E 004°20'0 0.0
2016-Aug-20 09:32N 51°17' E 004°20'0 0.0
2016-Aug-20 08:32N 51°17' E 004°20'0 0.0
2016-Aug-20 07:23N 51°17' E 004°20'0 0.0
2016-Aug-20 06:32N 51°17' E 004°20'0 0.0
2016-Aug-20 05:32N 51°17' E 004°20'0 0.0
2016-Aug-20 04:32N 51°17' E 004°20'0 0.0
2016-Aug-20 03:32N 51°17' E 004°20'0 0.0
2016-Aug-20 02:29N 51°17' E 004°20'0 0.0
2016-Aug-20 01:32N 51°17' E 004°20'0 0.0
2016-Aug-20 00:32N 51°17' E 004°20'0 0.0
2016-Aug-19 23:31N 51°17' E 004°20'0 0.0
2016-Aug-19 22:32N 51°17' E 004°20'0 0.0
2016-Aug-19 21:32N 51°17' E 004°20'0 0.0
2016-Aug-19 20:28N 51°17' E 004°20'0 0.0
2016-Aug-19 19:29N 51°17' E 004°20'0 0.0
2016-Aug-19 18:26N 51°17' E 004°20'0 0.0
2016-Aug-19 17:32N 51°17' E 004°20'0 0.0
2016-Aug-19 16:32N 51°17' E 004°20'0 0.0
2016-Aug-19 15:31N 51°17' E 004°20'0 0.0
2016-Aug-19 14:29N 51°17' E 004°20'0 0.0
2016-Aug-19 13:32N 51°17' E 004°20'0 0.1
2016-Aug-19 12:33N 51°17' E 004°20'2 1.6
2016-Aug-19 11:31N 51°15' E 004°22'0 0.0
2016-Aug-19 10:31N 51°15' E 004°22'0 0.0
2016-Aug-19 09:31N 51°15' E 004°22'0 0.0
2016-Aug-19 08:31N 51°15' E 004°22'0 0.0
2016-Aug-19 07:31N 51°15' E 004°22'0 0.0
2016-Aug-19 06:31N 51°15' E 004°22'0 0.0
2016-Aug-19 05:31N 51°15' E 004°22'0 0.0
2016-Aug-19 04:31N 51°15' E 004°22'0 0.0
2016-Aug-19 03:28N 51°15' E 004°22'0 0.0
2016-Aug-19 02:31N 51°15' E 004°22'0 0.0
2016-Aug-19 01:31N 51°15' E 004°22'0 0.0
2016-Aug-19 00:31N 51°15' E 004°22'0 0.0
2016-Aug-18 23:31N 51°15' E 004°22'0 0.0
2016-Aug-18 22:31N 51°15' E 004°22'0 0.0
2016-Aug-18 21:31N 51°15' E 004°22'0 0.0
2016-Aug-18 20:31N 51°15' E 004°22'0 0.0
2016-Aug-18 19:31N 51°15' E 004°22'0 0.0
2016-Aug-18 18:31N 51°15' E 004°22'0 0.0
2016-Aug-18 17:31N 51°15' E 004°22'0 0.0
2016-Aug-18 16:31N 51°15' E 004°22'0 0.0
2016-Aug-18 15:31N 51°15' E 004°22'0 0.0
2016-Aug-18 14:31N 51°15' E 004°22'0 0.0
2016-Aug-18 13:31N 51°15' E 004°22'0 0.0
2016-Aug-18 12:31N 51°15' E 004°22'0 0.0
2016-Aug-18 11:31N 51°15' E 004°22'0 0.0
2016-Aug-18 10:31N 51°15' E 004°22'0 0.0
2016-Aug-18 09:31N 51°15' E 004°22'0 0.0
2016-Aug-18 08:31N 51°15' E 004°22'0 0.0
2016-Aug-18 07:31N 51°15' E 004°22'0 0.0
2016-Aug-18 06:31N 51°15' E 004°22'0 0.0
2016-Aug-18 05:31N 51°15' E 004°22'0 0.0
2016-Aug-18 04:31N 51°15' E 004°22'0 0.0
2016-Aug-18 03:31N 51°15' E 004°22'0 0.0
2016-Aug-18 02:31N 51°15' E 004°22'0 0.0
2016-Aug-18 01:31N 51°15' E 004°22'0 0.0
2016-Aug-18 00:31N 51°15' E 004°22'0 0.0
2016-Aug-17 23:31N 51°15' E 004°22'0 0.0
2016-Aug-17 22:31N 51°15' E 004°22'0 0.0
2016-Aug-17 21:31N 51°15' E 004°22'0 0.0
2016-Aug-17 20:31N 51°15' E 004°22'0 0.0
2016-Aug-17 19:31N 51°15' E 004°22'0 0.0
2016-Aug-17 18:31N 51°15' E 004°22'0 0.0
2016-Aug-17 17:31N 51°15' E 004°22'0 0.0
2016-Aug-17 16:31N 51°15' E 004°22'0 0.0
2016-Aug-17 15:33N 51°15' E 004°22'4 4.4
2016-Aug-17 14:34N 51°19' E 004°19'0 0.3
2016-Aug-17 13:32N 51°19' E 004°18'0 0.0
2016-Aug-17 12:33N 51°19' E 004°18'0 0.0
2016-Aug-17 11:33N 51°19' E 004°18'0 0.0
2016-Aug-17 10:33N 51°19' E 004°18'0 0.0
2016-Aug-17 08:29N 51°19' E 004°18'0 0.0
2016-Aug-17 07:32N 51°19' E 004°18'0 0.0
2016-Aug-17 06:05N 51°19' E 004°18'0 0.0
2016-Aug-17 05:29N 51°19' E 004°18'0 0.0
2016-Aug-17 04:29N 51°19' E 004°18'0 0.0
2016-Aug-17 03:32N 51°19' E 004°18'0 0.0
2016-Aug-17 02:29N 51°19' E 004°18'0 0.0
2016-Aug-17 01:29N 51°19' E 004°18'0 0.0
2016-Aug-17 00:29N 51°19' E 004°18'0 0.0
2016-Aug-16 23:32N 51°19' E 004°18'0 0.0
2016-Aug-16 22:32N 51°19' E 004°18'0 0.0
2016-Aug-16 21:26N 51°19' E 004°18'0 0.0
2016-Aug-16 20:29N 51°19' E 004°18'0 0.0
2016-Aug-16 19:32N 51°19' E 004°18'0 0.0
2016-Aug-16 18:32N 51°19' E 004°18'0 0.0
2016-Aug-16 17:29N 51°19' E 004°18'0 0.0
2016-Aug-16 16:32N 51°19' E 004°18'0 0.0
2016-Aug-16 15:23N 51°19' E 004°18'0 0.0
2016-Aug-16 14:26N 51°19' E 004°18'0 0.0
2016-Aug-16 13:32N 51°19' E 004°18'0 0.0
2016-Aug-16 12:29N 51°19' E 004°18'0 0.0
2016-Aug-16 11:23N 51°19' E 004°18'0 0.0
2016-Aug-16 10:32N 51°19' E 004°18'0 0.0
2016-Aug-16 09:32N 51°19' E 004°18'0 0.0
2016-Aug-16 08:26N 51°19' E 004°18'0 0.0
2016-Aug-16 07:26N 51°19' E 004°18'2 0.7
2016-Aug-16 04:33N 51°21' E 004°17'0 0.0
2016-Aug-16 03:34N 51°21' E 004°17'3 3.1
2016-Aug-16 02:33N 51°23' E 004°13'9 8.9
2016-Aug-16 01:34N 51°26' E 004°00'1110.5
2016-Aug-16 00:34N 51°22' E 003°45'1010.0
2016-Aug-15 23:33N 51°25' E 003°29'1514.6
2016-Aug-15 22:34N 51°24' E 003°06'1313.0
2016-Aug-15 21:33N 51°22' E 002°45'6 5.8
2016-Aug-15 20:33N 51°22' E 002°36'3 2.5
2016-Aug-15 19:34N 51°22' E 002°32'6 5.7
2016-Aug-15 18:33N 51°20' E 002°24'1211.7
2016-Aug-15 17:33N 51°14' E 002°08'1111.2
2016-Aug-15 16:34N 51°09' E 001°51'1010.4
2016-Aug-15 15:33N 51°02' E 001°39'1010.5
2016-Aug-15 14:33N 50°54' E 001°28'1411.5
2016-Aug-15 13:21N 50°41' E 001°20'3711.6
2016-Aug-15 10:11N 50°25' E 000°29'912.9
2016-Aug-15 09:31N 50°22' E 000°16'1313.4
2016-Aug-15 08:32N 50°19' W 000°04'1914.2
2016-Aug-15 07:10N 50°14' W 000°34'1015.1
2016-Aug-15 06:31N 50°12' W 000°48'3015.5
2016-Aug-15 04:33N 50°03' W 001°34'1515.1
2016-Aug-15 03:33N 49°60' W 001°57'1414.2
2016-Aug-15 02:33N 49°56' W 002°18'1313.5
2016-Aug-15 01:33N 49°52' W 002°38'1312.9
2016-Aug-15 00:33N 49°49' W 002°58'1312.9
2016-Aug-14 23:33N 49°45' W 003°17'1312.8
2016-Aug-14 22:33N 49°41' W 003°36'1312.7
2016-Aug-14 21:33N 49°39' W 003°55'1312.8
2016-Aug-14 20:31N 49°35' W 004°15'1412.9
2016-Aug-14 19:27N 49°32' W 004°35'1813.1
2016-Aug-14 18:06N 49°27' W 005°01'2513.3
2016-Aug-14 16:12N 49°20' W 005°39'913.4
2016-Aug-14 15:33N 49°18' W 005°52'  
Track history (hours):
 
Tides and Currents Weather Stations Pressure Air Temp Water Temp Dewpoint Dewpoint Depression Visibility Wind Speed Wind Dir Waves Ship Positions

Bochem Mumbai

Last reported at 2016-Aug-24 15:29 UTC. Time now 2016-Aug-25 01:01 UTC.
Position N 43°10' W 010°07'.

Length 171 m; draft 7 m.

Type: Tanker. MMSI: 477932400.

Date/timePositionNaut miles runAvg speedWind from/ knotsBaromVisibWave heightAir tempDewpointWater temp
2016-Aug-24 15:29N 43°10' W 010°07'22014.6
2016-Aug-24 00:26N 46°24' W 007°45'1414.2
2016-Aug-23 23:26N 46°37' W 007°35'1314.5
2016-Aug-23 22:34N 46°48' W 007°27'1414.0
2016-Aug-23 21:33N 47°00' W 007°17'1514.9
2016-Aug-23 20:33N 47°14' W 007°07'1514.6
2016-Aug-23 19:34N 47°27' W 006°56'1413.9
2016-Aug-23 18:33N 47°39' W 006°47'1313.3
2016-Aug-23 17:34N 47°50' W 006°37'1413.7
2016-Aug-23 16:33N 48°03' W 006°27'1514.1
2016-Aug-23 15:27N 48°17' W 006°17'1314.8
2016-Aug-23 14:33N 48°28' W 006°07'1615.5
2016-Aug-23 13:32N 48°42' W 005°56'1515.6
2016-Aug-23 12:33N 48°55' W 005°44'1515.0
2016-Aug-23 11:33N 49°03' W 005°25'4312.7
2016-Aug-23 08:09N 49°26' W 004°28'1212.4
2016-Aug-23 07:10N 49°32' W 004°13'3814.5
2016-Aug-23 04:33N 49°53' W 003°24'1616.4
2016-Aug-23 03:34N 49°59' W 002°60'1616.1
2016-Aug-23 02:34N 50°03' W 002°36'1514.6
2016-Aug-23 01:33N 50°07' W 002°14'1312.6
2016-Aug-23 00:33N 50°10' W 001°55'1111.1
2016-Aug-22 23:33N 50°13' W 001°38'1110.7
2016-Aug-22 22:33N 50°16' W 001°22'1111.0
2016-Aug-22 21:33N 50°19' W 001°05'1313.1
2016-Aug-22 20:33N 50°23' W 000°45'1514.8
2016-Aug-22 19:34N 50°27' W 000°23'1615.7
2016-Aug-22 18:33N 50°31' E 000°01'1615.7
2016-Aug-22 17:33N 50°34' E 000°25'1514.8
2016-Aug-22 16:33N 50°40' E 000°46'1413.5
2016-Aug-22 15:32N 50°48' E 001°04'1111.5
2016-Aug-22 14:33N 50°55' E 001°18'1110.9
2016-Aug-22 13:33N 51°03' E 001°30'1212.2
2016-Aug-22 12:33N 51°12' E 001°43'1514.8
2016-Aug-22 11:34N 51°24' E 001°57'1312.9
2016-Aug-22 10:34N 51°21' E 002°17'1414.1
2016-Aug-22 09:34N 51°23' E 002°39'1110.9
2016-Aug-22 08:33N 51°23' E 002°57'1414.3
2016-Aug-22 07:33N 51°24' E 003°20'1212.4
2016-Aug-22 06:33N 51°27' E 003°39'9 8.8
2016-Aug-22 05:33N 51°21' E 003°50'8 8.2
2016-Aug-22 04:33N 51°24' E 004°02'8 8.2
2016-Aug-22 03:33N 51°21' E 004°14'5 4.6
2016-Aug-22 02:33N 51°17' E 004°15'1 0.7
2016-Aug-22 01:33N 51°17' E 004°14'0 0.2
2016-Aug-22 00:27N 51°17' E 004°14'0 0.0
2016-Aug-21 23:33N 51°17' E 004°14'0 0.0
2016-Aug-21 22:27N 51°17' E 004°14'0 0.0
2016-Aug-21 21:33N 51°17' E 004°14'0 0.0
2016-Aug-21 20:30N 51°17' E 004°14'0 0.0
2016-Aug-21 19:33N 51°17' E 004°14'0 0.0
2016-Aug-21 18:27N 51°17' E 004°14'0 0.0
2016-Aug-21 17:33N 51°17' E 004°14'0 0.0
2016-Aug-21 16:21N 51°17' E 004°14'0 0.0
2016-Aug-21 15:33N 51°17' E 004°14'0 0.0
2016-Aug-21 14:33N 51°17' E 004°14'0 0.0
2016-Aug-21 13:33N 51°17' E 004°14'0 0.0
2016-Aug-21 12:33N 51°17' E 004°14'0 0.0
2016-Aug-21 11:27N 51°17' E 004°14'0 0.0
2016-Aug-21 10:33N 51°17' E 004°14'0 0.0
2016-Aug-21 09:33N 51°17' E 004°14'0 0.0
2016-Aug-21 08:30N 51°17' E 004°14'0 0.0
2016-Aug-21 07:33N 51°17' E 004°14'0 0.0
2016-Aug-21 06:33N 51°17' E 004°14'0 0.0
2016-Aug-21 05:33N 51°17' E 004°14'0 0.0
2016-Aug-21 04:30N 51°17' E 004°14'0 0.0
2016-Aug-21 03:33N 51°17' E 004°14'0 0.0
2016-Aug-21 02:33N 51°17' E 004°14'0 0.0
2016-Aug-21 01:33N 51°17' E 004°14'0 0.0
2016-Aug-21 00:33N 51°17' E 004°14'0 0.0
2016-Aug-20 23:33N 51°17' E 004°14'0 0.0
2016-Aug-20 22:33N 51°17' E 004°14'0 0.0
2016-Aug-20 21:30N 51°17' E 004°14'0 0.0
2016-Aug-20 20:33N 51°17' E 004°14'0 0.0
2016-Aug-20 19:33N 51°17' E 004°14'0 0.0
2016-Aug-20 18:30N 51°17' E 004°14'0 0.0
2016-Aug-20 17:33N 51°17' E 004°14'0 0.0
2016-Aug-20 16:18N 51°17' E 004°14'0 0.0
2016-Aug-20 15:33N 51°17' E 004°14'1 0.8
2016-Aug-20 14:33N 51°16' E 004°15'0 0.3
2016-Aug-20 13:33N 51°17' E 004°15'4 3.6
2016-Aug-20 12:33N 51°20' E 004°16'1 0.8
2016-Aug-20 11:34N 51°21' E 004°17'4 4.4
2016-Aug-20 10:33N 51°17' E 004°20'0 0.0
2016-Aug-20 09:32N 51°17' E 004°20'0 0.0
2016-Aug-20 08:32N 51°17' E 004°20'0 0.0
2016-Aug-20 07:23N 51°17' E 004°20'0 0.0
2016-Aug-20 06:32N 51°17' E 004°20'0 0.0
2016-Aug-20 05:32N 51°17' E 004°20'0 0.0
2016-Aug-20 04:32N 51°17' E 004°20'0 0.0
2016-Aug-20 03:32N 51°17' E 004°20'0 0.0
2016-Aug-20 02:29N 51°17' E 004°20'0 0.0
2016-Aug-20 01:32N 51°17' E 004°20'0 0.0
2016-Aug-20 00:32N 51°17' E 004°20'0 0.0
2016-Aug-19 23:31N 51°17' E 004°20'0 0.0
2016-Aug-19 22:32N 51°17' E 004°20'0 0.0
2016-Aug-19 21:32N 51°17' E 004°20'0 0.0
2016-Aug-19 20:28N 51°17' E 004°20'0 0.0
2016-Aug-19 19:29N 51°17' E 004°20'0 0.0
2016-Aug-19 18:26N 51°17' E 004°20'0 0.0
2016-Aug-19 17:32N 51°17' E 004°20'0 0.0
2016-Aug-19 16:32N 51°17' E 004°20'0 0.0
2016-Aug-19 15:31N 51°17' E 004°20'0 0.0
2016-Aug-19 14:29N 51°17' E 004°20'0 0.0
2016-Aug-19 13:32N 51°17' E 004°20'0 0.1
2016-Aug-19 12:33N 51°17' E 004°20'2 1.6
2016-Aug-19 11:31N 51°15' E 004°22'0 0.0
2016-Aug-19 10:31N 51°15' E 004°22'0 0.0
2016-Aug-19 09:31N 51°15' E 004°22'0 0.0
2016-Aug-19 08:31N 51°15' E 004°22'0 0.0
2016-Aug-19 07:31N 51°15' E 004°22'0 0.0
2016-Aug-19 06:31N 51°15' E 004°22'0 0.0
2016-Aug-19 05:31N 51°15' E 004°22'0 0.0
2016-Aug-19 04:31N 51°15' E 004°22'0 0.0
2016-Aug-19 03:28N 51°15' E 004°22'0 0.0
2016-Aug-19 02:31N 51°15' E 004°22'0 0.0
2016-Aug-19 01:31N 51°15' E 004°22'0 0.0
2016-Aug-19 00:31N 51°15' E 004°22'0 0.0
2016-Aug-18 23:31N 51°15' E 004°22'0 0.0
2016-Aug-18 22:31N 51°15' E 004°22'0 0.0
2016-Aug-18 21:31N 51°15' E 004°22'0 0.0
2016-Aug-18 20:31N 51°15' E 004°22'0 0.0
2016-Aug-18 19:31N 51°15' E 004°22'0 0.0
2016-Aug-18 18:31N 51°15' E 004°22'0 0.0
2016-Aug-18 17:31N 51°15' E 004°22'0 0.0
2016-Aug-18 16:31N 51°15' E 004°22'0 0.0
2016-Aug-18 15:31N 51°15' E 004°22'0 0.0
2016-Aug-18 14:31N 51°15' E 004°22'0 0.0
2016-Aug-18 13:31N 51°15' E 004°22'0 0.0
2016-Aug-18 12:31N 51°15' E 004°22'0 0.0
2016-Aug-18 11:31N 51°15' E 004°22'0 0.0
2016-Aug-18 10:31N 51°15' E 004°22'0 0.0
2016-Aug-18 09:31N 51°15' E 004°22'0 0.0
2016-Aug-18 08:31N 51°15' E 004°22'0 0.0
2016-Aug-18 07:31N 51°15' E 004°22'0 0.0
2016-Aug-18 06:31N 51°15' E 004°22'0 0.0
2016-Aug-18 05:31N 51°15' E 004°22'0 0.0
2016-Aug-18 04:31N 51°15' E 004°22'0 0.0
2016-Aug-18 03:31N 51°15' E 004°22'0 0.0
2016-Aug-18 02:31N 51°15' E 004°22'0 0.0
2016-Aug-18 01:31N 51°15' E 004°22'0 0.0
2016-Aug-18 00:31N 51°15' E 004°22'0 0.0
2016-Aug-17 23:31N 51°15' E 004°22'0 0.0
2016-Aug-17 22:31N 51°15' E 004°22'0 0.0
2016-Aug-17 21:31N 51°15' E 004°22'0 0.0
2016-Aug-17 20:31N 51°15' E 004°22'0 0.0
2016-Aug-17 19:31N 51°15' E 004°22'0 0.0
2016-Aug-17 18:31N 51°15' E 004°22'0 0.0
2016-Aug-17 17:31N 51°15' E 004°22'0 0.0
2016-Aug-17 16:31N 51°15' E 004°22'0 0.0
2016-Aug-17 15:33N 51°15' E 004°22'4 4.4
2016-Aug-17 14:34N 51°19' E 004°19'0 0.3
2016-Aug-17 13:32N 51°19' E 004°18'0 0.0
2016-Aug-17 12:33N 51°19' E 004°18'0 0.0
2016-Aug-17 11:33N 51°19' E 004°18'0 0.0
2016-Aug-17 10:33N 51°19' E 004°18'0 0.0
2016-Aug-17 08:29N 51°19' E 004°18'0 0.0
2016-Aug-17 07:32N 51°19' E 004°18'0 0.0
2016-Aug-17 06:05N 51°19' E 004°18'0 0.0
2016-Aug-17 05:29N 51°19' E 004°18'0 0.0
2016-Aug-17 04:29N 51°19' E 004°18'0 0.0
2016-Aug-17 03:32N 51°19' E 004°18'0 0.0
2016-Aug-17 02:29N 51°19' E 004°18'0 0.0
2016-Aug-17 01:29N 51°19' E 004°18'0 0.0
2016-Aug-17 00:29N 51°19' E 004°18'0 0.0
2016-Aug-16 23:32N 51°19' E 004°18'0 0.0
2016-Aug-16 22:32N 51°19' E 004°18'0 0.0
2016-Aug-16 21:26N 51°19' E 004°18'0 0.0
2016-Aug-16 20:29N 51°19' E 004°18'0 0.0
2016-Aug-16 19:32N 51°19' E 004°18'0 0.0
2016-Aug-16 18:32N 51°19' E 004°18'0 0.0
2016-Aug-16 17:29N 51°19' E 004°18'0 0.0
2016-Aug-16 16:32N 51°19' E 004°18'0 0.0
2016-Aug-16 15:23N 51°19' E 004°18'0 0.0
2016-Aug-16 14:26N 51°19' E 004°18'0 0.0
2016-Aug-16 13:32N 51°19' E 004°18'0 0.0
2016-Aug-16 12:29N 51°19' E 004°18'0 0.0
2016-Aug-16 11:23N 51°19' E 004°18'0 0.0
2016-Aug-16 10:32N 51°19' E 004°18'0 0.0
2016-Aug-16 09:32N 51°19' E 004°18'0 0.0
2016-Aug-16 08:26N 51°19' E 004°18'0 0.0
2016-Aug-16 07:26N 51°19' E 004°18'2 0.7
2016-Aug-16 04:33N 51°21' E 004°17'0 0.0
2016-Aug-16 03:34N 51°21' E 004°17'3 3.1
2016-Aug-16 02:33N 51°23' E 004°13'9 8.9
2016-Aug-16 01:34N 51°26' E 004°00'1110.5
2016-Aug-16 00:34N 51°22' E 003°45'1010.0
2016-Aug-15 23:33N 51°25' E 003°29'1514.6
2016-Aug-15 22:34N 51°24' E 003°06'1313.0
2016-Aug-15 21:33N 51°22' E 002°45'6 5.8
2016-Aug-15 20:33N 51°22' E 002°36'3 2.5
2016-Aug-15 19:34N 51°22' E 002°32'6 5.7
2016-Aug-15 18:33N 51°20' E 002°24'1211.7
2016-Aug-15 17:33N 51°14' E 002°08'1111.2
2016-Aug-15 16:34N 51°09' E 001°51'1010.4
2016-Aug-15 15:33N 51°02' E 001°39'1010.5
2016-Aug-15 14:33N 50°54' E 001°28'1411.5
2016-Aug-15 13:21N 50°41' E 001°20'3711.6
2016-Aug-15 10:11N 50°25' E 000°29'912.9
2016-Aug-15 09:31N 50°22' E 000°16'1313.4
2016-Aug-15 08:32N 50°19' W 000°04'1914.2
2016-Aug-15 07:10N 50°14' W 000°34'1015.1
2016-Aug-15 06:31N 50°12' W 000°48'3015.5
2016-Aug-15 04:33N 50°03' W 001°34'1515.1
2016-Aug-15 03:33N 49°60' W 001°57'1414.2
2016-Aug-15 02:33N 49°56' W 002°18'1313.5
2016-Aug-15 01:33N 49°52' W 002°38'1312.9
2016-Aug-15 00:33N 49°49' W 002°58'1312.9
2016-Aug-14 23:33N 49°45' W 003°17'1312.8
2016-Aug-14 22:33N 49°41' W 003°36'1312.7
2016-Aug-14 21:33N 49°39' W 003°55'1312.8
2016-Aug-14 20:31N 49°35' W 004°15'1412.9
2016-Aug-14 19:27N 49°32' W 004°35'1813.1
2016-Aug-14 18:06N 49°27' W 005°01'2513.3
2016-Aug-14 16:12N 49°20' W 005°39'913.4
2016-Aug-14 15:33N 49°18' W 005°52'  

Dump ship's entire track history